createdAt,value
2023-03-14T00:02:42.444Z,45325.44
2023-03-14T00:07:48.319Z,45307.47
2023-03-14T00:12:52.618Z,45347.41
2023-03-14T00:17:57.263Z,45341.41
2023-03-14T00:23:03.741Z,45351.41
2023-03-14T00:28:08.061Z,45339.44
2023-03-14T00:33:12.247Z,45355.41
2023-03-14T00:38:17.837Z,45339.44
2023-03-14T00:43:25.875Z,45347.41
2023-03-14T00:48:32.437Z,45371.38
2023-03-14T00:53:40.965Z,45359.38
2023-03-14T00:58:45.585Z,45345.41
2023-03-14T01:03:49.998Z,45351.41
2023-03-14T01:08:56.150Z,45355.41
2023-03-14T01:14:01.317Z,45359.38
2023-03-14T01:19:06.945Z,45361.38
2023-03-14T01:24:14.692Z,45357.41
2023-03-14T01:29:19.063Z,45363.38
2023-03-14T01:34:23.311Z,45361.38
2023-03-14T01:39:29.787Z,45355.41
2023-03-14T01:44:50.299Z,45351.41
2023-03-14T01:49:58.775Z,45359.38
2023-03-14T01:55:07.695Z,45379.34
2023-03-14T02:00:15.452Z,45385.34
2023-03-14T02:05:23.956Z,45391.34
2023-03-14T02:10:50.468Z,45371.38
2023-03-14T02:16:00.101Z,45381.34
2023-03-14T02:21:46.969Z,45415.28
2023-03-14T02:27:15.848Z,45399.31
2023-03-14T02:32:24.226Z,45411.31
2023-03-14T02:37:35.722Z,45411.31
2023-03-14T02:42:42.462Z,45429.28
2023-03-14T02:47:51.813Z,45419.28
2023-03-14T02:52:56.065Z,45411.31
2023-03-14T02:58:02.464Z,45375.38
2023-03-14T03:03:07.351Z,45431.28
2023-03-14T03:08:12.152Z,45395.31
2023-03-14T03:13:19.187Z,45435.25
2023-03-14T03:18:27.661Z,45399.31
2023-03-14T03:23:32.857Z,45375.38
2023-03-14T03:28:38.667Z,45397.31
2023-03-14T03:33:43.318Z,45423.28
2023-03-14T03:38:47.703Z,45427.28
2023-03-14T03:43:55.317Z,45391.34
2023-03-14T03:49:02.753Z,45407.31
2023-03-14T03:54:07.078Z,45403.31
2023-03-14T03:59:12.975Z,45379.34
2023-03-14T04:04:17.356Z,45399.31
2023-03-14T04:09:22.265Z,45395.31
2023-03-14T04:14:44.388Z,45407.31
2023-03-14T04:19:59.636Z,45415.28
2023-03-14T04:25:12.094Z,45405.31
2023-03-14T04:30:23.453Z,45421.28
2023-03-14T04:35:37.094Z,45403.31
2023-03-14T04:40:46.407Z,45405.31
2023-03-14T04:45:53.210Z,45437.25
2023-03-14T04:50:57.711Z,45409.31
2023-03-14T04:56:04.193Z,45423.28
2023-03-14T05:01:16.248Z,45417.28
2023-03-14T05:06:38.791Z,45479.19
2023-03-14T05:12:03.222Z,45455.22
2023-03-14T05:17:15.729Z,45475.19
2023-03-14T05:22:44.004Z,45443.25
2023-03-14T05:28:26.449Z,45467.22
2023-03-14T05:33:46.205Z,45435.25
2023-03-14T05:39:10.958Z,45437.25
2023-03-14T05:44:34.664Z,45419.28
2023-03-14T05:49:58.878Z,45423.28
2023-03-14T05:55:10.986Z,45419.28
2023-03-14T06:00:47.944Z,45411.31
2023-03-14T06:06:19.053Z,45413.31
2023-03-14T06:11:23.582Z,45395.31
2023-03-14T06:16:28.036Z,45391.34
2023-03-14T06:21:33.998Z,45407.31
2023-03-14T06:26:38.552Z,45379.34
2023-03-14T06:31:42.762Z,45407.31
2023-03-14T06:36:49.453Z,45419.28
2023-03-14T06:41:54.055Z,45395.31
2023-03-14T06:46:58.725Z,45343.41
2023-03-14T06:52:04.997Z,45371.38
2023-03-14T06:57:10.072Z,45353.41
2023-03-14T07:02:14.837Z,45365.38
2023-03-14T07:07:22.829Z,45363.38
2023-03-14T07:12:27.055Z,45333.44
2023-03-14T07:17:32.396Z,45337.44
2023-03-14T07:22:38.006Z,45351.41
2023-03-14T07:27:42.574Z,45339.44
2023-03-14T07:32:46.802Z,45289.50
2023-03-14T07:37:53.670Z,45291.50
2023-03-14T07:43:05.806Z,45253.56
2023-03-14T07:48:28.133Z,45321.44
2023-03-14T07:53:34.242Z,45275.53
2023-03-14T07:58:38.391Z,45185.69
2023-03-14T08:03:42.640Z,45095.84
2023-03-14T08:08:48.265Z,45233.59
2023-03-14T08:13:52.927Z,45263.56
2023-03-14T08:18:57.597Z,45213.63
2023-03-14T08:24:05.936Z,45161.72
2023-03-14T08:29:14.021Z,45161.72
2023-03-14T08:34:18.176Z,45151.75
2023-03-14T08:39:24.566Z,45091.84
2023-03-14T08:44:29.079Z,45139.78
2023-03-14T08:49:33.610Z,45173.72
2023-03-14T08:54:39.450Z,45213.63
2023-03-14T08:59:43.919Z,45259.56
2023-03-14T09:04:48.171Z,45235.59
2023-03-14T09:09:54.142Z,45247.59
2023-03-14T09:14:58.930Z,45239.59
2023-03-14T09:20:07.163Z,45241.59
2023-03-14T09:25:13.368Z,45259.56
2023-03-14T09:30:18.610Z,45243.59
2023-03-14T09:35:23.458Z,45211.66
2023-03-14T09:40:34.271Z,45167.72
2023-03-14T09:45:41.651Z,45189.69
2023-03-14T09:50:50.678Z,45163.72
2023-03-14T09:56:00.271Z,45077.88
2023-03-14T10:01:04.858Z,45141.75
2023-03-14T10:06:14.111Z,45175.72
2023-03-14T10:11:20.164Z,45173.72
2023-03-14T10:16:31.485Z,45179.69
2023-03-14T10:21:40.678Z,45205.66
2023-03-14T10:26:49.747Z,45243.59
2023-03-14T10:31:56.301Z,45251.56
2023-03-14T10:37:08.639Z,45255.56
2023-03-14T10:42:23.351Z,45253.56
2023-03-14T10:47:29.478Z,45219.63
2023-03-14T10:53:00.267Z,45227.63
2023-03-14T10:58:00.622Z,45201.66
2023-03-14T11:03:12.761Z,45223.63
2023-03-14T11:08:26.151Z,45235.59
2023-03-14T11:13:39.851Z,45243.59
2023-03-14T11:19:14.079Z,45267.53
2023-03-14T11:24:38.641Z,45227.63
2023-03-14T11:29:57.594Z,45243.59
2023-03-14T11:35:06.457Z,45235.59
2023-03-14T11:40:16.896Z,45229.63
2023-03-14T11:45:29.073Z,45199.66
2023-03-14T11:50:35.416Z,45181.69
2023-03-14T11:55:43.331Z,45183.69
2023-03-14T12:00:50.635Z,45183.69
2023-03-14T12:06:12.152Z,45173.72
2023-03-14T12:11:28.159Z,45173.72
2023-03-14T12:16:41.516Z,45215.63
2023-03-14T12:21:50.576Z,45181.69
2023-03-14T12:26:57.238Z,45189.69
2023-03-14T12:32:25.862Z,45189.69
2023-03-14T12:37:38.654Z,45195.66
2023-03-14T12:42:56.557Z,45129.78
2023-03-14T12:48:11.636Z,45119.81
2023-03-14T12:53:53.030Z,45101.84
2023-03-14T12:59:22.129Z,45069.91
2023-03-14T13:04:39.567Z,45055.91
2023-03-14T13:10:06.729Z,45059.91
2023-03-14T13:15:22.311Z,45067.91
2023-03-14T13:20:33.238Z,45031.97
2023-03-14T13:25:38.578Z,44978.06
2023-03-14T13:30:45.387Z,44952.09
2023-03-14T13:35:56.709Z,44894.22
2023-03-14T13:41:02.622Z,44908.19
2023-03-14T13:46:09.353Z,44896.19
2023-03-14T13:51:18.739Z,44824.34
2023-03-14T13:56:24.869Z,44730.50
2023-03-14T14:01:32.547Z,44688.59
2023-03-14T14:06:40.558Z,44620.72
2023-03-14T14:11:59.898Z,44488.97
2023-03-14T14:17:15.908Z,44357.22
2023-03-14T14:22:22.968Z,44259.41
2023-03-14T14:27:32.615Z,44131.66
2023-03-14T14:32:39.276Z,44115.69
2023-03-14T14:37:46.666Z,44035.84
2023-03-14T14:42:52.325Z,44045.84
2023-03-14T14:47:59.660Z,43989.94
2023-03-14T14:53:24.717Z,44005.91
2023-03-14T14:58:31.546Z,43970.00
2023-03-14T15:03:37.096Z,43989.94
2023-03-14T15:08:43.214Z,44013.91
2023-03-14T15:13:47.802Z,43977.97
2023-03-14T15:18:55.907Z,43930.06
2023-03-14T15:24:01.786Z,43942.06
2023-03-14T15:29:09.202Z,43946.03
2023-03-14T15:34:13.686Z,43902.13
2023-03-14T15:39:19.601Z,43890.16
2023-03-14T15:44:23.814Z,43922.09
2023-03-14T15:49:28.283Z,43862.22
2023-03-14T15:54:34.507Z,43872.19
2023-03-14T15:59:38.897Z,43876.19
2023-03-14T16:04:43.327Z,43842.25
2023-03-14T16:09:49.038Z,43878.19
2023-03-14T16:14:53.439Z,43832.28
2023-03-14T16:19:57.579Z,43874.19
2023-03-14T16:25:04.359Z,43846.25
2023-03-14T16:30:09.921Z,43840.25
2023-03-14T16:35:14.046Z,43820.31
2023-03-14T16:40:20.127Z,43788.38
2023-03-14T16:45:24.696Z,43800.34
2023-03-14T16:50:28.798Z,43664.63
2023-03-14T16:55:34.568Z,43560.84
2023-03-14T17:00:39.593Z,43499.00
2023-03-14T17:05:48.125Z,43439.13
2023-03-14T17:10:54.064Z,43319.38
2023-03-14T17:16:00.320Z,43273.47
2023-03-14T17:21:05.464Z,43199.66
2023-03-14T17:26:13.081Z,43187.69
2023-03-14T17:31:19.406Z,43153.75
2023-03-14T17:36:26.748Z,43121.81
2023-03-14T17:41:32.477Z,43067.94
2023-03-14T17:46:36.896Z,43069.94
2023-03-14T17:51:41.580Z,43044.00
2023-03-14T17:56:49.265Z,43020.06
2023-03-14T18:01:53.906Z,43024.06
2023-03-14T18:06:58.223Z,42992.13
2023-03-14T18:12:08.223Z,42956.22
2023-03-14T18:17:14.135Z,42932.25
2023-03-14T18:22:21.012Z,42944.22
2023-03-14T18:27:26.935Z,42934.25
2023-03-14T18:32:31.814Z,42978.16
2023-03-14T18:37:36.274Z,43004.09
2023-03-14T18:42:42.269Z,43012.06
2023-03-14T18:47:46.714Z,43032.03
2023-03-14T18:52:51.472Z,43044.00
2023-03-14T18:57:57.436Z,43050.00
2023-03-14T19:03:02.346Z,43079.91
2023-03-14T19:08:07.086Z,43087.91
2023-03-14T19:13:13.202Z,43125.81
2023-03-14T19:18:17.540Z,43163.72
2023-03-14T19:23:24.814Z,43207.63
2023-03-14T19:28:32.304Z,43203.63
2023-03-14T19:33:36.459Z,43223.59
2023-03-14T19:38:40.869Z,43199.66
2023-03-14T19:43:46.814Z,43227.59
2023-03-14T19:48:54.544Z,43227.59
2023-03-14T19:54:03.388Z,43259.50
2023-03-14T19:59:09.024Z,43263.50
2023-03-14T20:04:14.925Z,43297.44
2023-03-14T20:09:19.314Z,43295.44
2023-03-14T20:14:25.220Z,43283.47
2023-03-14T20:19:29.742Z,43341.34
2023-03-14T20:24:34.397Z,43361.28
2023-03-14T20:29:39.965Z,43337.34
2023-03-14T20:34:44.325Z,43411.19
2023-03-14T20:39:48.450Z,43371.28
2023-03-14T20:44:54.816Z,43399.22
2023-03-14T20:50:01.879Z,43381.25
2023-03-14T20:55:06.787Z,43381.25
2023-03-14T21:00:15.803Z,43367.28
2023-03-14T21:05:20.277Z,43357.31
2023-03-14T21:10:24.824Z,43323.38
2023-03-14T21:15:31.289Z,43299.44
2023-03-14T21:20:36.982Z,43315.41
2023-03-14T21:25:43.377Z,43277.47
2023-03-14T21:30:50.353Z,43271.50
2023-03-14T21:35:54.812Z,43311.41
2023-03-14T21:40:59.672Z,43285.47
2023-03-14T21:46:05.365Z,43301.41
2023-03-14T21:51:09.811Z,43293.44
2023-03-14T21:56:14.795Z,43299.44
2023-03-14T22:01:20.466Z,43279.47
2023-03-14T22:06:24.848Z,43281.47
2023-03-14T22:11:29.247Z,43251.53
2023-03-14T22:16:35.094Z,43251.53
2023-03-14T22:21:39.326Z,43225.59
2023-03-14T22:26:43.476Z,43225.59
2023-03-14T22:31:49.887Z,43349.31
2023-03-14T22:36:54.110Z,43453.09
2023-03-14T22:41:58.553Z,43427.16
2023-03-14T22:47:05.233Z,43329.38
2023-03-14T22:52:09.652Z,43405.19
2023-03-14T22:57:14.381Z,43411.19
2023-03-14T23:02:20.101Z,43351.31
2023-03-14T23:07:24.548Z,43331.34
2023-03-14T23:12:28.763Z,43315.41
2023-03-14T23:17:35.086Z,43387.22
2023-03-14T23:22:39.529Z,43419.16
2023-03-14T23:27:46.483Z,43467.06
2023-03-14T23:32:52.352Z,43423.16
2023-03-14T23:37:56.564Z,43407.19
2023-03-14T23:43:00.675Z,43411.19
2023-03-14T23:48:07.372Z,43399.22
2023-03-14T23:53:11.828Z,43367.28
2023-03-14T23:58:16.169Z,43385.25
